sensor_id;sensor_type;location;lat;lon;timestamp;P1;durP1;ratioP1;P2;durP2;ratioP2
55316;SDS011;41178;48.956;8.130;2023-01-13T00:04:57;2.50;;;1.80;;
55316;SDS011;41178;48.956;8.130;2023-01-13T00:09:59;2.20;;;2.00;;
55316;SDS011;41178;48.956;8.130;2023-01-13T00:15:01;3.87;;;1.70;;
55316;SDS011;41178;48.956;8.130;2023-01-13T00:20:03;2.60;;;1.73;;
55316;SDS011;41178;48.956;8.130;2023-01-13T00:25:05;3.10;;;1.53;;
55316;SDS011;41178;48.956;8.130;2023-01-13T00:30:07;2.67;;;1.80;;
55316;SDS011;41178;48.956;8.130;2023-01-13T00:35:09;2.47;;;1.90;;
55316;SDS011;41178;48.956;8.130;2023-01-13T00:40:11;1.93;;;1.60;;
55316;SDS011;41178;48.956;8.130;2023-01-13T00:45:13;2.30;;;2.00;;
55316;SDS011;41178;48.956;8.130;2023-01-13T00:50:14;4.93;;;2.70;;
55316;SDS011;41178;48.956;8.130;2023-01-13T00:55:16;1.90;;;1.80;;
55316;SDS011;41178;48.956;8.130;2023-01-13T01:00:18;4.50;;;2.33;;
55316;SDS011;41178;48.956;8.130;2023-01-13T01:05:20;2.10;;;2.00;;
55316;SDS011;41178;48.956;8.130;2023-01-13T01:10:22;3.80;;;2.20;;
55316;SDS011;41178;48.956;8.130;2023-01-13T01:15:23;2.73;;;1.90;;
55316;SDS011;41178;48.956;8.130;2023-01-13T01:20:25;3.73;;;2.00;;
55316;SDS011;41178;48.956;8.130;2023-01-13T01:25:27;2.77;;;2.00;;
55316;SDS011;41178;48.956;8.130;2023-01-13T01:30:28;3.13;;;1.90;;
55316;SDS011;41178;48.956;8.130;2023-01-13T01:35:30;2.13;;;2.03;;
55316;SDS011;41178;48.956;8.130;2023-01-13T01:40:32;2.60;;;2.13;;
55316;SDS011;41178;48.956;8.130;2023-01-13T01:45:34;3.17;;;1.87;;
55316;SDS011;41178;48.956;8.130;2023-01-13T01:50:35;2.20;;;1.93;;
55316;SDS011;41178;48.956;8.130;2023-01-13T01:55:39;4.17;;;1.53;;
55316;SDS011;41178;48.956;8.130;2023-01-13T02:00:41;2.90;;;1.60;;
55316;SDS011;41178;48.956;8.130;2023-01-13T02:05:43;2.90;;;1.53;;
55316;SDS011;41178;48.956;8.130;2023-01-13T02:10:45;1.77;;;1.67;;
55316;SDS011;41178;48.956;8.130;2023-01-13T02:15:58;1.97;;;1.60;;
55316;SDS011;41178;48.956;8.130;2023-01-13T02:26:40;2.83;;;2.00;;
55316;SDS011;41178;48.956;8.130;2023-01-13T02:32:03;4.00;;;2.30;;
55316;SDS011;41178;48.956;8.130;2023-01-13T02:37:18;1.90;;;1.80;;
55316;SDS011;41178;48.956;8.130;2023-01-13T02:42:30;1.80;;;1.70;;
55316;SDS011;41178;48.956;8.130;2023-01-13T02:47:52;3.03;;;2.13;;
55316;SDS011;41178;48.956;8.130;2023-01-13T02:52:57;2.43;;;2.20;;
55316;SDS011;41178;48.956;8.130;2023-01-13T02:58:04;2.47;;;2.20;;
55316;SDS011;41178;48.956;8.130;2023-01-13T03:03:08;2.97;;;2.13;;
55316;SDS011;41178;48.956;8.130;2023-01-13T03:08:14;1.77;;;1.67;;
55316;SDS011;41178;48.956;8.130;2023-01-13T03:24:21;2.60;;;1.87;;
55316;SDS011;41178;48.956;8.130;2023-01-13T03:34:43;2.40;;;2.30;;
55316;SDS011;41178;48.956;8.130;2023-01-13T03:39:51;1.77;;;1.67;;
55316;SDS011;41178;48.956;8.130;2023-01-13T03:45:08;1.90;;;1.70;;
55316;SDS011;41178;48.956;8.130;2023-01-13T03:50:19;1.90;;;1.73;;
55316;SDS011;41178;48.956;8.130;2023-01-13T03:55:25;2.57;;;2.37;;
55316;SDS011;41178;48.956;8.130;2023-01-13T04:00:37;2.37;;;1.77;;
55316;SDS011;41178;48.956;8.130;2023-01-13T04:05:45;2.60;;;1.60;;
55316;SDS011;41178;48.956;8.130;2023-01-13T04:15:56;1.87;;;1.60;;
55316;SDS011;41178;48.956;8.130;2023-01-13T04:21:00;2.37;;;1.90;;
55316;SDS011;41178;48.956;8.130;2023-01-13T04:26:03;3.50;;;2.23;;
55316;SDS011;41178;48.956;8.130;2023-01-13T04:31:05;3.37;;;2.00;;
55316;SDS011;41178;48.956;8.130;2023-01-13T04:36:06;1.77;;;1.67;;
55316;SDS011;41178;48.956;8.130;2023-01-13T04:41:08;1.73;;;1.60;;
55316;SDS011;41178;48.956;8.130;2023-01-13T04:46:10;1.93;;;1.53;;
55316;SDS011;41178;48.956;8.130;2023-01-13T04:51:12;2.13;;;2.03;;
55316;SDS011;41178;48.956;8.130;2023-01-13T04:56:13;2.63;;;1.90;;
55316;SDS011;41178;48.956;8.130;2023-01-13T05:01:15;1.90;;;1.80;;
55316;SDS011;41178;48.956;8.130;2023-01-13T05:06:17;2.47;;;1.70;;
55316;SDS011;41178;48.956;8.130;2023-01-13T05:11:18;4.17;;;1.83;;
55316;SDS011;41178;48.956;8.130;2023-01-13T05:16:39;2.07;;;1.87;;
55316;SDS011;41178;48.956;8.130;2023-01-13T05:21:59;2.80;;;2.10;;
55316;SDS011;41178;48.956;8.130;2023-01-13T05:27:20;3.37;;;1.70;;
55316;SDS011;41178;48.956;8.130;2023-01-13T05:32:22;2.90;;;2.10;;
55316;SDS011;41178;48.956;8.130;2023-01-13T05:37:24;2.33;;;2.17;;
55316;SDS011;41178;48.956;8.130;2023-01-13T05:42:27;2.10;;;2.00;;
55316;SDS011;41178;48.956;8.130;2023-01-13T05:47:48;2.93;;;1.90;;
55316;SDS011;41178;48.956;8.130;2023-01-13T05:52:50;1.90;;;1.80;;
55316;SDS011;41178;48.956;8.130;2023-01-13T05:57:51;3.10;;;1.80;;
55316;SDS011;41178;48.956;8.130;2023-01-13T06:02:53;2.87;;;1.73;;
55316;SDS011;41178;48.956;8.130;2023-01-13T06:07:58;4.03;;;1.63;;
55316;SDS011;41178;48.956;8.130;2023-01-13T06:13:01;2.10;;;1.90;;
55316;SDS011;41178;48.956;8.130;2023-01-13T06:18:04;2.60;;;1.70;;
55316;SDS011;41178;48.956;8.130;2023-01-13T06:23:07;2.47;;;1.80;;
55316;SDS011;41178;48.956;8.130;2023-01-13T06:28:09;2.47;;;2.27;;
55316;SDS011;41178;48.956;8.130;2023-01-13T06:33:12;2.37;;;2.17;;
55316;SDS011;41178;48.956;8.130;2023-01-13T06:38:24;2.03;;;1.93;;
55316;SDS011;41178;48.956;8.130;2023-01-13T06:43:29;2.30;;;2.10;;
55316;SDS011;41178;48.956;8.130;2023-01-13T06:48:31;1.90;;;1.80;;
55316;SDS011;41178;48.956;8.130;2023-01-13T06:53:35;1.97;;;1.67;;
55316;SDS011;41178;48.956;8.130;2023-01-13T06:58:36;2.90;;;1.87;;
55316;SDS011;41178;48.956;8.130;2023-01-13T07:03:39;1.57;;;1.40;;
55316;SDS011;41178;48.956;8.130;2023-01-13T07:08:41;2.27;;;2.10;;
55316;SDS011;41178;48.956;8.130;2023-01-13T07:13:42;2.10;;;2.00;;
55316;SDS011;41178;48.956;8.130;2023-01-13T07:19:02;1.80;;;1.70;;
55316;SDS011;41178;48.956;8.130;2023-01-13T07:24:04;2.60;;;1.87;;
55316;SDS011;41178;48.956;8.130;2023-01-13T07:29:06;2.97;;;2.67;;
55316;SDS011;41178;48.956;8.130;2023-01-13T07:34:08;6.70;;;2.73;;
55316;SDS011;41178;48.956;8.130;2023-01-13T07:39:09;2.90;;;2.47;;
55316;SDS011;41178;48.956;8.130;2023-01-13T07:44:11;2.97;;;2.30;;
55316;SDS011;41178;48.956;8.130;2023-01-13T07:49:13;2.77;;;2.30;;
55316;SDS011;41178;48.956;8.130;2023-01-13T07:54:14;2.83;;;2.10;;
55316;SDS011;41178;48.956;8.130;2023-01-13T07:59:17;3.97;;;2.50;;
55316;SDS011;41178;48.956;8.130;2023-01-13T08:04:18;2.13;;;1.93;;
55316;SDS011;41178;48.956;8.130;2023-01-13T08:09:20;3.67;;;2.50;;
55316;SDS011;41178;48.956;8.130;2023-01-13T08:14:22;3.57;;;3.10;;
55316;SDS011;41178;48.956;8.130;2023-01-13T08:19:23;5.53;;;3.93;;
55316;SDS011;41178;48.956;8.130;2023-01-13T08:24:25;3.30;;;3.00;;
55316;SDS011;41178;48.956;8.130;2023-01-13T08:29:27;3.23;;;2.20;;
55316;SDS011;41178;48.956;8.130;2023-01-13T08:34:28;4.67;;;2.70;;
55316;SDS011;41178;48.956;8.130;2023-01-13T08:39:30;2.97;;;2.67;;
55316;SDS011;41178;48.956;8.130;2023-01-13T08:44:32;2.70;;;2.20;;
55316;SDS011;41178;48.956;8.130;2023-01-13T08:49:33;3.13;;;2.43;;
55316;SDS011;41178;48.956;8.130;2023-01-13T08:54:36;5.50;;;3.10;;
55316;SDS011;41178;48.956;8.130;2023-01-13T08:59:39;4.60;;;2.27;;
55316;SDS011;41178;48.956;8.130;2023-01-13T09:04:41;2.37;;;2.17;;
55316;SDS011;41178;48.956;8.130;2023-01-13T09:09:43;2.80;;;2.07;;
55316;SDS011;41178;48.956;8.130;2023-01-13T09:14:45;3.00;;;2.20;;
55316;SDS011;41178;48.956;8.130;2023-01-13T09:19:47;2.63;;;2.43;;
55316;SDS011;41178;48.956;8.130;2023-01-13T09:24:49;4.23;;;2.20;;
55316;SDS011;41178;48.956;8.130;2023-01-13T09:29:51;5.73;;;4.00;;
55316;SDS011;41178;48.956;8.130;2023-01-13T09:34:53;4.27;;;2.20;;
55316;SDS011;41178;48.956;8.130;2023-01-13T09:40:01;3.67;;;2.30;;
55316;SDS011;41178;48.956;8.130;2023-01-13T09:45:10;5.63;;;2.10;;
55316;SDS011;41178;48.956;8.130;2023-01-13T09:50:22;4.50;;;2.93;;
55316;SDS011;41178;48.956;8.130;2023-01-13T09:55:45;8.77;;;3.03;;
55316;SDS011;41178;48.956;8.130;2023-01-13T10:11:35;3.90;;;2.83;;
55316;SDS011;41178;48.956;8.130;2023-01-13T10:27:39;4.00;;;2.80;;
55316;SDS011;41178;48.956;8.130;2023-01-13T10:32:42;5.00;;;3.10;;
55316;SDS011;41178;48.956;8.130;2023-01-13T10:37:54;6.10;;;3.03;;
55316;SDS011;41178;48.956;8.130;2023-01-13T10:43:03;5.07;;;3.23;;
55316;SDS011;41178;48.956;8.130;2023-01-13T10:48:11;3.63;;;2.37;;
55316;SDS011;41178;48.956;8.130;2023-01-13T10:53:16;5.17;;;2.57;;
55316;SDS011;41178;48.956;8.130;2023-01-13T10:58:26;4.77;;;2.40;;
55316;SDS011;41178;48.956;8.130;2023-01-13T11:06:28;5.30;;;2.60;;
55316;SDS011;41178;48.956;8.130;2023-01-13T11:16:47;5.50;;;2.63;;
55316;SDS011;41178;48.956;8.130;2023-01-13T11:21:59;5.50;;;3.03;;
55316;SDS011;41178;48.956;8.130;2023-01-13T11:32:18;8.07;;;3.03;;
55316;SDS011;41178;48.956;8.130;2023-01-13T11:37:24;9.00;;;3.00;;
55316;SDS011;41178;48.956;8.130;2023-01-13T11:42:42;4.60;;;2.37;;
55316;SDS011;41178;48.956;8.130;2023-01-13T11:47:56;6.20;;;2.97;;
55316;SDS011;41178;48.956;8.130;2023-01-13T12:08:41;11.00;;;4.07;;
55316;SDS011;41178;48.956;8.130;2023-01-13T12:14:07;8.00;;;2.80;;
55316;SDS011;41178;48.956;8.130;2023-01-13T12:19:21;7.77;;;3.23;;
55316;SDS011;41178;48.956;8.130;2023-01-13T12:29:36;6.97;;;2.57;;
55316;SDS011;41178;48.956;8.130;2023-01-13T12:34:54;5.53;;;3.10;;
55316;SDS011;41178;48.956;8.130;2023-01-13T12:45:27;5.37;;;2.73;;
55316;SDS011;41178;48.956;8.130;2023-01-13T12:55:33;6.73;;;2.50;;
55316;SDS011;41178;48.956;8.130;2023-01-13T13:00:51;7.57;;;3.20;;
55316;SDS011;41178;48.956;8.130;2023-01-13T13:05:59;4.93;;;3.07;;
55316;SDS011;41178;48.956;8.130;2023-01-13T13:16:50;10.23;;;2.80;;
55316;SDS011;41178;48.956;8.130;2023-01-13T13:27:16;8.53;;;3.40;;
55316;SDS011;41178;48.956;8.130;2023-01-13T13:42:59;4.60;;;2.80;;
55316;SDS011;41178;48.956;8.130;2023-01-13T13:48:23;6.27;;;2.83;;
55316;SDS011;41178;48.956;8.130;2023-01-13T13:53:28;15.40;;;9.93;;
55316;SDS011;41178;48.956;8.130;2023-01-13T13:58:34;4.63;;;3.53;;
55316;SDS011;41178;48.956;8.130;2023-01-13T14:03:37;10.30;;;3.80;;
55316;SDS011;41178;48.956;8.130;2023-01-13T14:08:40;9.13;;;3.77;;
55316;SDS011;41178;48.956;8.130;2023-01-13T14:14:03;6.93;;;3.50;;
55316;SDS011;41178;48.956;8.130;2023-01-13T14:19:17;10.03;;;3.40;;
55316;SDS011;41178;48.956;8.130;2023-01-13T14:24:26;10.93;;;3.33;;
55316;SDS011;41178;48.956;8.130;2023-01-13T14:29:29;9.07;;;4.23;;
55316;SDS011;41178;48.956;8.130;2023-01-13T14:34:30;9.13;;;4.67;;
55316;SDS011;41178;48.956;8.130;2023-01-13T14:39:38;6.50;;;2.80;;
55316;SDS011;41178;48.956;8.130;2023-01-13T14:44:44;5.87;;;3.93;;
55316;SDS011;41178;48.956;8.130;2023-01-13T14:50:15;7.67;;;3.50;;
55316;SDS011;41178;48.956;8.130;2023-01-13T14:55:25;8.83;;;4.40;;
55316;SDS011;41178;48.956;8.130;2023-01-13T15:00:27;8.03;;;3.07;;
55316;SDS011;41178;48.956;8.130;2023-01-13T15:05:32;7.00;;;2.87;;
55316;SDS011;41178;48.956;8.130;2023-01-13T15:15:56;4.53;;;2.90;;
55316;SDS011;41178;48.956;8.130;2023-01-13T15:20:59;8.67;;;2.77;;
55316;SDS011;41178;48.956;8.130;2023-01-13T15:26:01;6.47;;;3.57;;
55316;SDS011;41178;48.956;8.130;2023-01-13T15:31:03;5.23;;;3.00;;
55316;SDS011;41178;48.956;8.130;2023-01-13T15:36:05;5.10;;;2.70;;
55316;SDS011;41178;48.956;8.130;2023-01-13T15:41:21;6.13;;;3.20;;
55316;SDS011;41178;48.956;8.130;2023-01-13T15:46:42;12.77;;;6.80;;
55316;SDS011;41178;48.956;8.130;2023-01-13T15:51:44;7.00;;;2.70;;
55316;SDS011;41178;48.956;8.130;2023-01-13T15:56:46;9.77;;;2.70;;
55316;SDS011;41178;48.956;8.130;2023-01-13T16:01:48;12.80;;;9.47;;
55316;SDS011;41178;48.956;8.130;2023-01-13T16:06:50;6.83;;;3.17;;
55316;SDS011;41178;48.956;8.130;2023-01-13T16:11:52;5.13;;;3.10;;
55316;SDS011;41178;48.956;8.130;2023-01-13T16:16:54;5.97;;;2.70;;
55316;SDS011;41178;48.956;8.130;2023-01-13T16:21:55;5.90;;;2.87;;
55316;SDS011;41178;48.956;8.130;2023-01-13T16:27:00;5.60;;;3.03;;
55316;SDS011;41178;48.956;8.130;2023-01-13T16:32:01;6.23;;;2.90;;
55316;SDS011;41178;48.956;8.130;2023-01-13T16:37:03;7.33;;;2.70;;
55316;SDS011;41178;48.956;8.130;2023-01-13T16:42:06;5.87;;;3.10;;
55316;SDS011;41178;48.956;8.130;2023-01-13T16:47:11;14.23;;;2.93;;
55316;SDS011;41178;48.956;8.130;2023-01-13T16:52:14;4.77;;;2.90;;
55316;SDS011;41178;48.956;8.130;2023-01-13T16:57:16;7.97;;;2.53;;
55316;SDS011;41178;48.956;8.130;2023-01-13T17:02:18;4.07;;;2.87;;
55316;SDS011;41178;48.956;8.130;2023-01-13T17:07:21;7.20;;;3.50;;
55316;SDS011;41178;48.956;8.130;2023-01-13T17:12:23;6.70;;;2.80;;
55316;SDS011;41178;48.956;8.130;2023-01-13T17:17:25;7.47;;;3.10;;
55316;SDS011;41178;48.956;8.130;2023-01-13T17:22:28;4.93;;;2.57;;
55316;SDS011;41178;48.956;8.130;2023-01-13T17:27:31;6.53;;;2.90;;
55316;SDS011;41178;48.956;8.130;2023-01-13T17:32:32;7.13;;;3.10;;
55316;SDS011;41178;48.956;8.130;2023-01-13T17:37:34;4.87;;;3.90;;
55316;SDS011;41178;48.956;8.130;2023-01-13T17:42:36;4.10;;;2.40;;
55316;SDS011;41178;48.956;8.130;2023-01-13T17:47:37;4.40;;;3.00;;
55316;SDS011;41178;48.956;8.130;2023-01-13T17:52:39;7.27;;;2.70;;
55316;SDS011;41178;48.956;8.130;2023-01-13T17:57:41;3.83;;;2.30;;
55316;SDS011;41178;48.956;8.130;2023-01-13T18:02:42;5.80;;;2.90;;
55316;SDS011;41178;48.956;8.130;2023-01-13T18:07:44;4.10;;;2.50;;
55316;SDS011;41178;48.956;8.130;2023-01-13T18:12:46;5.53;;;2.90;;
55316;SDS011;41178;48.956;8.130;2023-01-13T18:17:47;5.87;;;2.93;;
55316;SDS011;41178;48.956;8.130;2023-01-13T18:22:49;6.73;;;2.63;;
55316;SDS011;41178;48.956;8.130;2023-01-13T18:28:09;7.20;;;2.90;;
55316;SDS011;41178;48.956;8.130;2023-01-13T18:33:11;4.20;;;2.47;;
55316;SDS011;41178;48.956;8.130;2023-01-13T18:38:13;6.10;;;4.17;;
55316;SDS011;41178;48.956;8.130;2023-01-13T18:43:24;4.43;;;2.97;;
55316;SDS011;41178;48.956;8.130;2023-01-13T18:48:26;8.00;;;2.80;;
55316;SDS011;41178;48.956;8.130;2023-01-13T18:53:28;2.03;;;1.80;;
55316;SDS011;41178;48.956;8.130;2023-01-13T18:58:29;3.83;;;2.60;;
55316;SDS011;41178;48.956;8.130;2023-01-13T19:03:33;3.93;;;2.50;;
55316;SDS011;41178;48.956;8.130;2023-01-13T19:08:35;3.37;;;2.40;;
55316;SDS011;41178;48.956;8.130;2023-01-13T19:13:36;3.90;;;3.13;;
55316;SDS011;41178;48.956;8.130;2023-01-13T19:18:38;4.20;;;2.77;;
55316;SDS011;41178;48.956;8.130;2023-01-13T19:23:40;3.43;;;2.67;;
55316;SDS011;41178;48.956;8.130;2023-01-13T19:28:42;6.30;;;2.80;;
55316;SDS011;41178;48.956;8.130;2023-01-13T19:33:44;3.57;;;2.60;;
55316;SDS011;41178;48.956;8.130;2023-01-13T19:38:45;5.50;;;3.20;;
55316;SDS011;41178;48.956;8.130;2023-01-13T19:43:47;5.50;;;2.43;;
55316;SDS011;41178;48.956;8.130;2023-01-13T19:49:07;4.33;;;3.00;;
55316;SDS011;41178;48.956;8.130;2023-01-13T19:54:10;4.50;;;2.83;;
55316;SDS011;41178;48.956;8.130;2023-01-13T19:59:12;4.90;;;2.70;;
55316;SDS011;41178;48.956;8.130;2023-01-13T20:04:14;8.50;;;2.70;;
55316;SDS011;41178;48.956;8.130;2023-01-13T20:09:18;4.33;;;2.80;;
55316;SDS011;41178;48.956;8.130;2023-01-13T20:14:21;7.20;;;3.10;;
55316;SDS011;41178;48.956;8.130;2023-01-13T20:19:23;8.00;;;3.37;;
55316;SDS011;41178;48.956;8.130;2023-01-13T20:24:25;6.73;;;3.00;;
55316;SDS011;41178;48.956;8.130;2023-01-13T20:29:27;9.77;;;3.20;;
55316;SDS011;41178;48.956;8.130;2023-01-13T20:34:29;6.03;;;3.10;;
55316;SDS011;41178;48.956;8.130;2023-01-13T20:39:30;8.90;;;3.27;;
55316;SDS011;41178;48.956;8.130;2023-01-13T20:44:33;8.67;;;3.70;;
55316;SDS011;41178;48.956;8.130;2023-01-13T20:49:35;14.80;;;4.30;;
55316;SDS011;41178;48.956;8.130;2023-01-13T20:54:38;10.13;;;4.00;;
55316;SDS011;41178;48.956;8.130;2023-01-13T20:59:40;11.47;;;4.00;;
55316;SDS011;41178;48.956;8.130;2023-01-13T21:04:42;9.63;;;3.73;;
55316;SDS011;41178;48.956;8.130;2023-01-13T21:09:44;12.70;;;3.70;;
55316;SDS011;41178;48.956;8.130;2023-01-13T21:14:46;7.57;;;3.10;;
55316;SDS011;41178;48.956;8.130;2023-01-13T21:20:10;6.83;;;3.07;;
55316;SDS011;41178;48.956;8.130;2023-01-13T21:25:13;11.07;;;3.53;;
55316;SDS011;41178;48.956;8.130;2023-01-13T21:30:16;7.80;;;3.03;;
55316;SDS011;41178;48.956;8.130;2023-01-13T21:35:18;7.37;;;3.70;;
55316;SDS011;41178;48.956;8.130;2023-01-13T21:40:19;14.03;;;4.03;;
55316;SDS011;41178;48.956;8.130;2023-01-13T21:45:21;12.20;;;3.70;;
55316;SDS011;41178;48.956;8.130;2023-01-13T21:50:42;9.57;;;3.43;;
55316;SDS011;41178;48.956;8.130;2023-01-13T21:55:48;7.40;;;3.10;;
55316;SDS011;41178;48.956;8.130;2023-01-13T22:00:52;12.60;;;3.97;;
55316;SDS011;41178;48.956;8.130;2023-01-13T22:05:54;10.90;;;3.47;;
55316;SDS011;41178;48.956;8.130;2023-01-13T22:10:56;12.53;;;3.53;;
55316;SDS011;41178;48.956;8.130;2023-01-13T22:16:01;9.23;;;3.60;;
55316;SDS011;41178;48.956;8.130;2023-01-13T22:21:04;12.13;;;3.80;;
55316;SDS011;41178;48.956;8.130;2023-01-13T22:26:06;9.23;;;3.30;;
55316;SDS011;41178;48.956;8.130;2023-01-13T22:31:09;5.90;;;3.10;;
55316;SDS011;41178;48.956;8.130;2023-01-13T22:36:13;16.03;;;4.17;;
55316;SDS011;41178;48.956;8.130;2023-01-13T22:41:15;11.33;;;4.20;;
55316;SDS011;41178;48.956;8.130;2023-01-13T22:46:17;12.83;;;3.27;;
55316;SDS011;41178;48.956;8.130;2023-01-13T22:51:19;12.43;;;3.33;;
55316;SDS011;41178;48.956;8.130;2023-01-13T22:56:23;13.30;;;3.27;;
55316;SDS011;41178;48.956;8.130;2023-01-13T23:01:27;12.30;;;3.77;;
55316;SDS011;41178;48.956;8.130;2023-01-13T23:06:31;11.97;;;3.67;;
55316;SDS011;41178;48.956;8.130;2023-01-13T23:11:34;10.73;;;3.47;;
55316;SDS011;41178;48.956;8.130;2023-01-13T23:16:37;9.40;;;3.27;;
55316;SDS011;41178;48.956;8.130;2023-01-13T23:21:39;6.37;;;3.87;;
55316;SDS011;41178;48.956;8.130;2023-01-13T23:26:41;8.53;;;3.30;;
55316;SDS011;41178;48.956;8.130;2023-01-13T23:31:43;9.50;;;3.80;;
55316;SDS011;41178;48.956;8.130;2023-01-13T23:36:44;8.37;;;3.53;;
55316;SDS011;41178;48.956;8.130;2023-01-13T23:41:46;10.27;;;3.53;;
55316;SDS011;41178;48.956;8.130;2023-01-13T23:46:48;8.07;;;3.03;;
55316;SDS011;41178;48.956;8.130;2023-01-13T23:51:50;9.53;;;3.37;;
55316;SDS011;41178;48.956;8.130;2023-01-13T23:56:52;7.47;;;3.27;;
